Time;durP1;ratioP1;P1;durP2;ratioP2;P2;SDS_P1;SDS_P2;PMS_P1;PMS_P2;Temp;Humidity;BMP_temperature;BMP_pressure;BME280_temperature;BME280_humidity;BME280_pressure;Samples;Min_cycle;Max_cycle;Signal;HPM_P1;HPM_P2
2022/08/25 04:01:42;;;;;;;12.53;11.30;;;13.20;96.30;;;;;;5370368;23;20510;-77
2022/08/25 04:04:09;;;;;;;12.73;11.20;;;13.10;96.30;;;;;;4967520;28;20441;-76
2022/08/25 04:06:38;;;;;;;14.97;13.47;;;13.10;96.30;;;;;;4956660;28;20418;-76
2022/08/25 04:09:03;;;;;;;13.20;11.90;;;13.10;96.30;;;;;;4955442;28;20498;-76
2022/08/25 04:11:29;;;;;;;16.40;14.67;;;13.20;96.30;;;;;;4973283;28;20529;-78
2022/08/25 04:13:59;;;;;;;17.20;15.37;;;13.30;96.30;;;;;;4973377;28;20214;-77
2022/08/25 04:16:29;;;;;;;15.03;13.63;;;13.40;96.30;;;;;;4964627;28;20174;-76
2022/08/25 04:18:54;;;;;;;19.33;14.20;;;13.50;96.30;;;;;;4981475;28;20436;-76
2022/08/25 04:26:36;;;;;;;13.40;11.90;;;13.50;96.30;;;;;;5287024;23;20488;-77
2022/08/25 04:29:04;;;;;;;17.27;11.97;;;13.40;96.30;;;;;;4992006;28;20401;-77
2022/08/25 04:31:30;;;;;;;18.10;13.17;;;13.40;96.30;;;;;;4992460;28;20424;-76
2022/08/25 04:33:56;;;;;;;20.73;16.50;;;13.70;96.30;;;;;;4992341;28;20465;-77
2022/08/25 04:36:22;;;;;;;19.47;16.40;;;13.90;96.30;;;;;;4974909;28;20928;-77
2022/08/25 04:38:48;;;;;;;27.40;19.60;;;14.10;96.30;;;;;;4990673;28;20416;-77
2022/08/25 04:41:16;;;;;;;22.73;18.87;;;14.20;96.30;;;;;;4986407;28;20205;-77
2022/08/25 04:43:43;;;;;;;29.00;20.47;;;14.40;96.30;;;;;;4976860;28;20468;-76
2022/08/25 04:46:12;;;;;;;25.23;16.80;;;14.60;96.30;;;;;;4976782;28;20831;-76
2022/08/25 04:48:39;;;;;;;23.27;17.33;;;14.70;96.30;;;;;;4976115;28;20449;-77
2022/08/25 04:51:11;;;;;;;15.37;13.70;;;14.80;96.30;;;;;;4979463;28;20541;-76
2022/08/25 04:53:37;;;;;;;11.67;10.47;;;15.00;96.30;;;;;;4972855;28;20455;-76
2022/08/25 04:56:09;;;;;;;11.23;10.03;;;15.00;96.30;;;;;;4978409;28;20471;-75
2022/08/25 04:58:36;;;;;;;9.63;8.77;;;14.80;96.30;;;;;;4995326;28;20423;-76
2022/08/25 05:01:06;;;;;;;10.40;9.30;;;14.50;96.30;;;;;;4995825;28;20425;-76
2022/08/25 05:03:32;;;;;;;10.60;9.70;;;14.30;96.30;;;;;;4972314;28;20790;-77
2022/08/25 05:05:58;;;;;;;14.30;9.40;;;14.40;96.30;;;;;;4995708;28;20408;-76
2022/08/25 05:08:24;;;;;;;10.50;9.50;;;14.50;96.30;;;;;;4995151;28;20184;-76
2022/08/25 05:10:49;;;;;;;18.50;10.90;;;14.60;96.30;;;;;;4995604;28;20273;-76
2022/08/25 05:13:15;;;;;;;12.33;9.67;;;14.70;96.30;;;;;;4995630;28;21032;-76
2022/08/25 05:15:49;;;;;;;12.20;10.93;;;14.80;96.30;;;;;;4995715;28;20177;-76
2022/08/25 05:18:18;;;;;;;9.60;8.60;;;15.00;96.30;;;;;;4994988;28;20648;-76
2022/08/25 05:20:44;;;;;;;11.53;10.30;;;15.30;96.30;;;;;;4995769;28;20440;-74
2022/08/25 05:23:10;;;;;;;13.90;9.10;;;15.70;96.30;;;;;;4995570;28;20782;-74
2022/08/25 05:25:36;;;;;;;9.57;8.67;;;16.10;96.30;;;;;;4995518;28;20436;-74
2022/08/25 05:28:02;;;;;;;10.30;8.80;;;16.40;96.30;;;;;;4994968;28;20233;-75
2022/08/25 05:30:27;;;;;;;10.33;9.20;;;16.70;96.30;;;;;;4995844;28;20193;-73
2022/08/25 05:32:53;;;;;;;9.63;8.60;;;17.50;96.30;;;;;;4995538;28;20547;-75
2022/08/25 05:35:19;;;;;;;9.10;8.30;;;18.50;96.30;;;;;;4985218;28;20182;-78
2022/08/25 05:37:45;;;;;;;8.60;7.80;;;19.60;96.30;;;;;;4983508;28;20281;-74
2022/08/25 05:40:10;;;;;;;7.90;6.93;;;20.10;96.30;;;;;;4981370;28;20595;-74
2022/08/25 05:42:36;;;;;;;8.77;7.00;;;20.70;96.30;;;;;;4990205;28;20504;-76
2022/08/25 05:45:05;;;;;;;7.10;6.07;;;21.00;96.30;;;;;;4978813;28;20188;-75
2022/08/25 05:47:31;;;;;;;7.60;6.90;;;22.10;96.30;;;;;;4977592;28;20193;-76
2022/08/25 05:49:56;;;;;;;10.03;6.30;;;23.00;96.30;;;;;;4983499;28;20504;-75
2022/08/25 05:52:22;;;;;;;8.20;6.07;;;23.30;96.30;;;;;;4993267;28;20233;-76
2022/08/25 05:54:47;;;;;;;7.60;6.80;;;23.90;96.30;;;;;;4994628;28;20188;-76
2022/08/25 05:57:13;;;;;;;13.37;6.70;;;24.30;96.30;;;;;;4994944;28;20232;-76
2022/08/25 05:59:39;;;;;;;9.67;6.63;;;25.30;96.30;;;;;;4994290;28;20180;-76
2022/08/25 06:04:50;;;;;;;10.40;6.00;;;25.30;96.30;;;;;;4995126;28;20207;-76
2022/08/25 06:07:15;;;;;;;7.20;5.60;;;26.30;96.30;;;;;;4985185;28;21023;-76
2022/08/25 06:09:41;;;;;;;10.10;5.53;;;26.50;96.30;;;;;;4991152;28;20211;-76
2022/08/25 06:12:07;;;;;;;7.33;5.70;;;26.90;96.30;;;;;;4991490;28;20228;-76
2022/08/25 06:14:33;;;;;;;6.30;5.80;;;27.40;96.30;;;;;;4986379;28;20188;-76
2022/08/25 06:16:59;;;;;;;6.60;5.23;;;27.80;96.30;;;;;;4984630;28;20188;-76
2022/08/25 06:19:25;;;;;;;11.50;5.60;;;28.30;95.00;;;;;;4984302;28;20177;-76
2022/08/25 06:21:55;;;;;;;7.97;5.80;;;28.30;94.90;;;;;;4992931;28;20951;-76
2022/08/25 06:24:21;;;;;;;6.93;6.23;;;28.00;96.10;;;;;;4994465;28;20418;-76
2022/08/25 06:26:46;;;;;;;9.40;5.33;;;28.40;94.90;;;;;;4994133;28;20891;-76
2022/08/25 06:29:13;;;;;;;5.80;5.27;;;29.20;91.60;;;;;;4993065;28;20214;-76
2022/08/25 06:31:38;;;;;;;6.10;5.40;;;28.70;92.30;;;;;;4993866;28;20200;-76
2022/08/25 06:34:05;;;;;;;6.07;5.00;;;28.60;92.40;;;;;;4993596;28;20862;-76
2022/08/25 06:36:31;;;;;;;6.33;5.27;;;28.50;92.50;;;;;;4993907;28;20535;-76
2022/08/25 06:38:56;;;;;;;7.20;5.40;;;28.60;92.50;;;;;;4993482;28;20872;-76
2022/08/25 06:41:22;;;;;;;10.63;5.80;;;28.20;95.20;;;;;;4993294;28;20535;-76
2022/08/25 06:43:47;;;;;;;10.20;5.10;;;28.90;93.70;;;;;;4983865;28;20177;-76
2022/08/25 06:46:21;;;;;;;6.00;5.40;;;28.50;94.60;;;;;;4989578;28;20751;-76
2022/08/25 06:48:47;;;;;;;9.07;6.10;;;28.70;93.60;;;;;;4974929;28;20181;-76
2022/08/25 06:51:16;;;;;;;6.93;5.50;;;29.90;90.10;;;;;;4960893;28;20215;-76
2022/08/25 06:53:43;;;;;;;6.53;5.93;;;30.00;90.20;;;;;;4986725;28;20639;-76
2022/08/25 06:56:10;;;;;;;7.10;5.40;;;30.80;87.40;;;;;;4975451;28;20554;-76
2022/08/25 06:58:36;;;;;;;5.90;5.30;;;30.20;88.60;;;;;;4974026;28;20284;-76
2022/08/25 07:01:19;;;;;;;8.88;5.32;;;29.70;90.40;;;;;;4978949;28;20216;-76
2022/08/25 07:03:45;;;;;;;6.93;6.22;;;29.00;92.60;;;;;;4987235;28;20217;-76
2022/08/25 07:06:10;;;;;;;6.82;5.78;;;29.10;92.60;;;;;;4987370;28;20649;-76
2022/08/25 07:08:36;;;;;;;6.28;5.57;;;29.30;92.40;;;;;;4986973;28;20255;-76
2022/08/25 07:11:06;;;;;;;9.55;6.20;;;30.10;90.90;;;;;;4985753;28;20986;-76
2022/08/25 07:13:32;;;;;;;9.95;6.95;;;30.90;89.20;;;;;;4982519;28;20205;-76
2022/08/25 07:15:57;;;;;;;10.82;6.88;;;31.30;88.50;;;;;;4993510;28;20528;-76
2022/08/25 07:18:23;;;;;;;10.02;6.35;;;31.90;86.70;;;;;;4988367;28;20211;-76
2022/08/25 07:20:50;;;;;;;9.20;6.15;;;31.70;89.50;;;;;;4989464;28;20595;-76
2022/08/25 07:23:16;;;;;;;15.02;5.82;;;32.80;86.30;;;;;;4990869;28;20193;-76
2022/08/25 07:25:42;;;;;;;10.65;6.10;;;33.00;83.60;;;;;;4992769;28;20200;-76
2022/08/25 07:28:07;;;;;;;12.18;6.78;;;31.70;86.70;;;;;;4986270;28;20190;-76
2022/08/25 07:30:33;;;;;;;11.25;7.03;;;32.20;85.00;;;;;;4991791;28;20695;-76
2022/08/25 07:32:58;;;;;;;9.25;6.32;;;32.30;85.50;;;;;;4988369;28;20213;-76
2022/08/25 07:35:26;;;;;;;11.50;6.47;;;32.50;85.20;;;;;;4991805;28;20212;-77
2022/08/25 07:37:55;;;;;;;8.55;6.55;;;31.80;85.40;;;;;;4992114;28;20264;-76
2022/08/25 07:40:36;;;;;;;8.95;6.72;;;31.50;87.60;;;;;;4980511;28;20184;-76
2022/08/25 07:43:06;;;;;;;8.07;6.65;;;32.50;84.60;;;;;;4999532;28;20181;-76
2022/08/25 07:45:34;;;;;;;12.20;7.78;;;32.20;85.10;;;;;;5007404;28;20180;-76
2022/08/25 07:48:10;;;;;;;11.30;7.28;;;32.40;84.70;;;;;;5009928;28;20209;-76
2022/08/25 07:50:40;;;;;;;8.65;7.22;;;32.10;85.30;;;;;;5011840;28;20195;-76
2022/08/25 07:53:06;;;;;;;12.43;7.40;;;31.70;86.70;;;;;;5011771;28;20635;-76
2022/08/25 07:55:35;;;;;;;8.20;6.50;;;31.80;87.10;;;;;;5010957;28;20254;-76
2022/08/25 07:58:02;;;;;;;19.93;7.80;;;32.20;85.60;;;;;;4992087;28;20189;-75
2022/08/25 08:00:31;;;;;;;10.90;6.85;;;32.30;85.40;;;;;;4992317;28;21482;-76
2022/08/25 08:02:57;;;;;;;11.93;7.78;;;30.50;91.10;;;;;;4999191;28;20668;-76
2022/08/25 08:05:24;;;;;;;19.10;7.03;;;30.40;90.40;;;;;;5011993;28;20227;-76
2022/08/25 08:07:50;;;;;;;11.82;7.22;;;29.80;92.50;;;;;;5011641;28;20199;-76
2022/08/25 08:10:16;;;;;;;9.40;7.70;;;30.20;91.50;;;;;;4997850;28;20180;-76
2022/08/25 08:12:41;;;;;;;12.00;7.73;;;31.30;88.30;;;;;;4994958;28;20219;-76
2022/08/25 08:15:07;;;;;;;14.67;7.43;;;31.30;88.10;;;;;;4993443;28;20176;-76
2022/08/25 08:17:33;;;;;;;9.13;6.30;;;30.70;89.60;;;;;;4978127;28;20195;-76
2022/08/25 08:20:00;;;;;;;15.20;6.93;;;29.80;93.30;;;;;;4996079;28;20477;-76
2022/08/25 08:22:26;;;;;;;12.47;7.40;;;30.30;90.30;;;;;;4996534;28;20212;-76
2022/08/25 08:24:51;;;;;;;10.83;7.10;;;30.90;91.40;;;;;;4996081;28;20411;-75
2022/08/25 08:27:16;;;;;;;12.87;7.13;;;30.80;90.00;;;;;;5021638;28;20165;-76
2022/08/25 08:29:42;;;;;;;12.40;6.60;;;31.40;88.50;;;;;;5021459;28;20173;-74
2022/08/25 08:32:12;;;;;;;13.07;7.17;;;30.40;90.10;;;;;;5006023;28;20288;-75
2022/08/25 08:34:39;;;;;;;14.47;7.43;;;29.40;93.90;;;;;;4978744;28;20173;-74
2022/08/25 08:37:05;;;;;;;8.77;6.13;;;29.60;93.40;;;;;;4996355;28;20412;-74
2022/08/25 08:39:30;;;;;;;10.03;7.00;;;29.00;95.10;;;;;;4990332;28;20420;-74
2022/08/25 08:42:17;;;;;;;13.87;7.90;;;30.10;93.10;;;;;;4981319;28;20220;-75
2022/08/25 08:44:46;;;;;;;11.57;7.17;;;29.90;92.60;;;;;;4971748;28;20607;-75
2022/08/25 08:47:42;;;;;;;21.23;8.00;;;28.30;96.30;;;;;;4996098;28;20404;-76
2022/08/25 08:50:28;;;;;;;13.47;7.20;;;27.80;96.30;;;;;;4995491;28;20412;-75
2022/08/25 08:53:23;;;;;;;12.33;7.20;;;28.00;96.30;;;;;;4995726;28;20546;-75
2022/08/25 08:55:54;;;;;;;15.77;7.50;;;26.90;96.30;;;;;;4967702;28;20433;-75
2022/08/25 08:58:25;;;;;;;16.20;8.80;;;26.60;96.30;;;;;;4995724;28;20915;-75
2022/08/25 09:00:54;;;;;;;11.70;6.73;;;26.00;96.30;;;;;;4995980;28;20935;-75
2022/08/25 09:03:43;;;;;;;12.13;7.00;;;26.60;96.30;;;;;;4995761;28;20412;-75
2022/08/25 09:06:16;;;;;;;12.10;6.37;;;26.70;96.30;;;;;;4995736;28;20420;-75
2022/08/25 09:08:43;;;;;;;17.30;6.77;;;27.50;96.30;;;;;;4995540;28;20463;-75
2022/08/25 09:11:25;;;;;;;17.03;7.30;;;28.60;96.30;;;;;;4995669;28;20867;-75
2022/08/25 09:14:04;;;;;;;27.03;7.77;;;29.10;96.30;;;;;;4995591;28;20539;-75
2022/08/25 09:16:55;;;;;;;16.47;6.90;;;30.40;93.50;;;;;;4995665;28;20448;-75
2022/08/25 09:19:47;;;;;;;16.77;7.07;;;29.80;93.70;;;;;;4995023;28;20451;-75
2022/08/25 09:22:37;;;;;;;16.20;7.40;;;28.50;96.30;;;;;;4994570;28;20440;-75
2022/08/25 09:25:12;;;;;;;18.20;7.53;;;28.70;96.30;;;;;;4995342;28;20525;-75
2022/08/25 09:27:56;;;;;;;21.37;7.60;;;28.10;96.30;;;;;;4994936;28;20423;-75
2022/08/25 09:30:22;;;;;;;18.83;6.90;;;27.60;96.30;;;;;;4995478;28;20491;-75
2022/08/25 09:32:52;;;;;;;13.87;5.90;;;27.30;96.30;;;;;;4995228;28;20587;-75
2022/08/25 09:35:26;;;;;;;13.27;7.00;;;27.00;96.30;;;;;;4995336;28;20404;-75
2022/08/25 09:37:56;;;;;;;26.50;6.70;;;27.00;96.30;;;;;;4995215;28;20415;-75
2022/08/25 09:40:23;;;;;;;15.03;6.53;;;28.30;96.30;;;;;;4995087;28;20428;-75
2022/08/25 09:42:52;;;;;;;10.77;6.10;;;29.20;96.30;;;;;;4995223;28;20428;-75
2022/08/25 09:45:38;;;;;;;41.27;6.30;;;30.10;96.30;;;;;;4995386;28;20740;-75
2022/08/25 09:48:20;;;;;;;17.23;6.43;;;30.30;93.80;;;;;;4994835;28;20424;-75
2022/08/25 09:50:47;;;;;;;26.47;6.50;;;30.10;93.30;;;;;;4995016;28;20586;-75
2022/08/25 09:53:14;;;;;;;27.80;7.63;;;29.50;93.20;;;;;;4995012;28;20558;-75
2022/08/25 09:55:42;;;;;;;17.53;5.90;;;28.50;95.00;;;;;;4986150;28;20413;-74
2022/08/25 09:58:19;;;;;;;24.93;6.20;;;28.00;96.30;;;;;;4975348;28;20405;-75
2022/08/25 10:01:01;;;;;;;21.77;6.23;;;27.50;96.30;;;;;;4994948;28;20424;-76
2022/08/25 10:03:27;;;;;;;16.13;5.90;;;26.80;96.30;;;;;;4994909;28;20419;-78
2022/08/25 10:06:13;;;;;;;22.47;7.33;;;26.00;96.30;;;;;;4990927;28;20424;-77
2022/08/25 10:08:54;;;;;;;21.43;6.73;;;25.90;96.30;;;;;;4984498;28;20185;-76
2022/08/25 10:11:42;;;;;;;16.33;6.20;;;25.60;96.30;;;;;;4982437;28;20439;-76
2022/08/25 10:14:15;;;;;;;25.00;7.53;;;25.60;96.30;;;;;;4981725;28;20466;-78
2022/08/25 10:16:42;;;;;;;19.80;6.33;;;25.70;96.30;;;;;;4999471;28;20439;-75
2022/08/25 10:19:12;;;;;;;29.30;6.67;;;26.20;96.30;;;;;;4985212;28;20688;-75
2022/08/25 11:26:40;;;;;;;35.00;6.67;;;26.90;96.30;;;;;;4996492;23;21011;-75
2022/08/25 11:29:15;;;;;;;28.17;5.97;;;26.80;96.30;;;;;;4993452;28;20853;-77
2022/08/25 11:31:44;;;;;;;33.37;6.17;;;26.70;96.30;;;;;;4961923;28;20474;-77
2022/08/25 11:34:14;;;;;;;42.83;6.77;;;27.30;96.30;;;;;;4954766;29;20540;-77
2022/08/25 11:36:47;;;;;;;34.33;6.00;;;27.70;96.30;;;;;;4937577;29;20440;-77
2022/08/25 11:39:31;;;;;;;36.83;7.27;;;27.60;96.30;;;;;;4955026;29;20820;-77
2022/08/25 11:42:07;;;;;;;21.67;5.77;;;27.40;96.30;;;;;;4971357;28;20433;-77
2022/08/25 11:45:00;;;;;;;28.47;6.03;;;27.40;96.30;;;;;;4974898;28;20436;-77
2022/08/25 11:47:44;;;;;;;19.40;5.80;;;27.10;96.30;;;;;;4975356;28;20417;-77
2022/08/25 11:50:24;;;;;;;27.53;6.73;;;27.50;96.30;;;;;;4974061;28;20421;-79
2022/08/25 11:52:55;;;;;;;23.87;6.83;;;27.50;96.30;;;;;;4957440;28;20472;-77
2022/08/25 11:55:28;;;;;;;31.67;6.60;;;28.20;96.30;;;;;;4935973;29;20422;-77
2022/08/25 11:58:25;;;;;;;19.50;5.43;;;28.40;96.30;;;;;;4966676;28;20419;-77
2022/08/25 12:00:51;;;;;;;20.40;5.70;;;28.50;96.30;;;;;;4974099;28;20532;-77
2022/08/25 12:03:37;;;;;;;35.23;6.03;;;28.30;95.00;;;;;;4974132;28;20960;-77
2022/08/25 12:06:21;;;;;;;27.20;5.77;;;28.30;96.00;;;;;;4968260;28;20656;-76
2022/08/25 12:08:58;;;;;;;31.30;6.37;;;28.20;96.30;;;;;;4970217;28;20959;-75
2022/08/25 12:11:48;;;;;;;29.73;6.40;;;28.50;96.30;;;;;;4965177;28;20440;-75
2022/08/25 12:14:25;;;;;;;21.97;5.87;;;29.30;94.20;;;;;;4956372;28;20479;-76
2022/08/25 12:16:52;;;;;;;22.87;6.10;;;29.80;94.90;;;;;;4974343;28;20452;-76
2022/08/25 12:19:25;;;;;;;25.00;6.30;;;29.30;92.80;;;;;;4973548;28;20489;-74
2022/08/25 12:21:53;;;;;;;27.60;6.63;;;29.20;93.40;;;;;;4956045;28;20526;-75
2022/08/25 12:24:35;;;;;;;18.77;5.30;;;29.10;93.20;;;;;;4974376;28;20413;-78
2022/08/25 12:27:03;;;;;;;31.43;5.60;;;28.30;95.00;;;;;;4974976;28;20425;-78
2022/08/25 12:29:31;;;;;;;21.83;5.40;;;28.10;96.00;;;;;;4973743;28;20539;-75
2022/08/25 12:31:57;;;;;;;29.83;5.93;;;28.00;96.30;;;;;;4973229;28;20521;-77
2022/08/25 12:34:39;;;;;;;20.80;5.27;;;27.70;96.30;;;;;;4956202;28;20467;-77
2022/08/25 12:37:17;;;;;;;31.70;6.37;;;28.00;95.70;;;;;;4967811;28;20405;-77
2022/08/25 12:40:04;;;;;;;35.70;6.83;;;28.50;95.50;;;;;;4969448;28;20405;-76
2022/08/25 12:42:43;;;;;;;22.17;5.40;;;29.20;93.30;;;;;;4970176;28;20803;-77
2022/08/25 12:45:24;;;;;;;36.23;7.17;;;29.50;92.80;;;;;;4970475;28;20424;-76
2022/08/25 12:47:52;;;;;;;26.93;5.80;;;29.60;93.30;;;;;;4970253;28;20424;-77
2022/08/25 12:50:35;;;;;;;25.90;5.63;;;29.70;91.30;;;;;;4971653;28;20429;-76
2022/08/25 12:53:14;;;;;;;21.53;5.77;;;28.50;94.00;;;;;;4971745;28;20500;-76
2022/08/25 12:55:50;;;;;;;15.43;5.40;;;28.20;95.40;;;;;;4971667;28;20772;-77
2022/08/25 12:58:16;;;;;;;22.10;5.70;;;27.80;96.30;;;;;;4971619;28;20420;-77
2022/08/25 13:01:17;;;;;;;22.70;6.90;;;27.70;96.30;;;;;;4971956;28;20428;-77
2022/08/25 13:04:10;;;;;;;32.00;6.80;;;27.30;96.30;;;;;;4954500;28;20409;-76
2022/08/25 13:07:23;;;;;;;14.03;4.80;;;27.40;96.30;;;;;;4974389;28;20413;-78
2022/08/25 13:10:10;;;;;;;16.40;5.80;;;27.60;96.30;;;;;;4943942;28;20504;-77
2022/08/25 13:12:49;;;;;;;27.10;6.10;;;27.70;96.30;;;;;;4957639;28;20456;-76
2022/08/25 13:15:41;;;;;;;22.00;5.67;;;27.60;96.30;;;;;;4973802;28;20459;-76
2022/08/25 13:18:16;;;;;;;24.00;5.73;;;27.20;96.30;;;;;;4972599;28;20413;-76
2022/08/25 13:20:42;;;;;;;19.40;5.90;;;27.40;96.30;;;;;;4974943;28;20433;-76
2022/08/25 13:23:09;;;;;;;24.80;7.03;;;27.40;96.30;;;;;;4974965;28;20445;-76
2022/08/25 13:25:45;;;;;;;24.27;4.80;;;27.60;96.30;;;;;;4975032;28;20936;-77
2022/08/25 13:28:44;;;;;;;21.07;6.00;;;27.80;96.30;;;;;;4957323;28;20508;-76
2022/08/25 13:31:20;;;;;;;20.60;5.47;;;28.30;96.10;;;;;;4970806;28;20507;-76
2022/08/25 13:34:07;;;;;;;14.77;5.50;;;28.00;96.20;;;;;;4974686;28;20559;-77
2022/08/25 13:39:29;;;;;;;22.20;5.90;;;28.00;96.30;;;;;;4975457;28;20424;-76
2022/08/25 13:41:59;;;;;;;15.40;5.20;;;28.40;95.50;;;;;;4975388;28;20857;-76
2022/08/25 13:44:28;;;;;;;16.30;5.40;;;28.80;94.40;;;;;;4975915;28;20405;-76
2022/08/25 13:47:12;;;;;;;20.43;5.43;;;28.90;93.80;;;;;;4975168;28;20917;-78
2022/08/25 13:49:41;;;;;;;18.97;5.37;;;28.40;94.60;;;;;;4973894;28;20516;-76
2022/08/25 13:52:14;;;;;;;18.57;5.97;;;28.40;95.50;;;;;;4975985;28;20456;-76
2022/08/25 13:54:42;;;;;;;19.80;5.10;;;27.90;96.10;;;;;;4976229;28;20430;-76
2022/08/25 13:57:22;;;;;;;22.73;6.30;;;28.00;96.30;;;;;;4976344;28;20417;-76
2022/08/25 13:59:54;;;;;;;21.33;6.30;;;28.30;96.30;;;;;;4976225;28;20507;-76
2022/08/25 14:02:45;;;;;;;32.00;6.10;;;28.40;94.80;;;;;;4976474;28;20512;-76
2022/08/25 14:05:13;;;;;;;24.93;5.37;;;28.10;95.30;;;;;;4976029;28;20808;-76
2022/08/25 14:07:39;;;;;;;17.17;5.87;;;28.10;96.20;;;;;;4974978;28;20917;-76
2022/08/25 14:10:29;;;;;;;18.10;5.23;;;28.10;96.30;;;;;;4974935;28;20429;-76
2022/08/25 14:13:14;;;;;;;22.37;5.33;;;28.30;96.00;;;;;;4975041;28;20464;-75
2022/08/25 14:15:42;;;;;;;19.10;5.80;;;28.10;95.60;;;;;;4975382;28;20405;-76
2022/08/25 14:18:16;;;;;;;26.10;6.17;;;27.50;96.30;;;;;;4974962;28;20921;-76
2022/08/25 14:20:52;;;;;;;33.20;5.90;;;27.50;96.30;;;;;;4975111;28;20936;-76
2022/08/25 14:23:21;;;;;;;24.57;5.30;;;27.70;96.30;;;;;;4975007;28;20543;-77
2022/08/25 14:25:49;;;;;;;27.50;6.50;;;28.20;96.30;;;;;;4975273;28;20420;-78
2022/08/25 14:28:18;;;;;;;30.57;6.43;;;28.30;96.30;;;;;;4975114;28;20421;-76
2022/08/25 14:30:48;;;;;;;19.00;5.20;;;28.60;95.70;;;;;;4957876;28;20460;-76
2022/08/25 14:33:16;;;;;;;20.50;5.30;;;28.90;94.30;;;;;;4975335;28;20469;-77
2022/08/25 14:35:45;;;;;;;22.07;6.07;;;28.90;93.50;;;;;;4975287;28;20746;-77
2022/08/25 14:38:11;;;;;;;20.13;5.80;;;29.00;93.20;;;;;;4975582;28;20492;-77
2022/08/25 14:40:38;;;;;;;16.50;4.70;;;29.10;92.80;;;;;;4974815;28;20473;-77
2022/08/25 14:43:04;;;;;;;35.30;8.37;;;29.40;91.80;;;;;;4974617;28;20683;-77
2022/08/25 14:45:31;;;;;;;19.80;5.13;;;29.50;91.40;;;;;;4958434;28;20465;-78
2022/08/25 14:48:02;;;;;;;32.90;5.97;;;29.80;90.40;;;;;;4978703;28;20488;-78
2022/08/25 14:50:28;;;;;;;21.63;6.30;;;29.20;91.70;;;;;;4978355;28;20423;-78
2022/08/25 14:52:54;;;;;;;23.67;6.37;;;29.20;92.40;;;;;;4978411;28;20547;-78
2022/08/25 14:55:19;;;;;;;19.77;5.67;;;29.40;92.60;;;;;;4978733;28;20453;-78
2022/08/25 14:57:45;;;;;;;28.23;5.00;;;29.20;91.70;;;;;;4978092;28;20224;-77
2022/08/25 15:00:11;;;;;;;21.20;5.87;;;29.40;91.60;;;;;;4978913;28;20607;-78
2022/08/25 15:02:41;;;;;;;17.67;5.63;;;29.50;91.90;;;;;;4977923;28;20174;-77
2022/08/25 15:05:10;;;;;;;13.60;5.20;;;29.20;91.90;;;;;;4976735;28;20180;-77
2022/08/25 15:10:20;;;;;;;18.80;5.20;;;28.10;95.30;;;;;;4961669;28;20441;-77
2022/08/25 15:12:46;;;;;;;37.27;5.43;;;28.10;95.30;;;;;;4955742;29;20458;-76
2022/08/25 15:15:11;;;;;;;29.80;5.77;;;27.70;96.30;;;;;;4956010;28;20182;-74
2022/08/25 15:17:40;;;;;;;23.07;5.63;;;27.50;96.30;;;;;;4974566;28;20181;-75
2022/08/25 15:20:06;;;;;;;19.53;5.30;;;27.60;96.30;;;;;;4973862;28;20172;-74
2022/08/25 15:22:32;;;;;;;19.13;5.57;;;27.50;96.30;;;;;;4974025;28;20472;-74
2022/08/25 15:24:57;;;;;;;19.13;5.87;;;27.70;96.30;;;;;;4973490;28;20448;-74
2022/08/25 15:27:23;;;;;;;32.50;6.63;;;27.70;96.30;;;;;;4974054;28;20188;-78
2022/08/25 15:29:49;;;;;;;22.40;5.50;;;27.80;96.30;;;;;;4973939;28;20638;-73
2022/08/25 15:32:14;;;;;;;30.30;6.50;;;28.00;96.30;;;;;;4956560;28;20205;-74
2022/08/25 15:34:40;;;;;;;32.03;6.00;;;27.90;96.30;;;;;;4973945;28;20249;-74
2022/08/25 15:37:09;;;;;;;30.80;6.20;;;27.90;96.30;;;;;;4973551;28;20257;-77
2022/08/25 15:39:36;;;;;;;18.10;5.43;;;27.80;96.30;;;;;;4973536;28;20254;-75
2022/08/25 15:42:02;;;;;;;25.43;5.20;;;27.60;96.30;;;;;;4973660;28;20429;-78
2022/08/25 15:44:28;;;;;;;21.40;6.20;;;27.80;96.30;;;;;;4973678;28;20413;-76
2022/08/25 15:46:53;;;;;;;27.53;5.40;;;27.60;96.30;;;;;;4973584;28;20461;-74
2022/08/25 15:49:19;;;;;;;19.10;6.00;;;27.90;96.30;;;;;;4973410;28;20546;-75
2022/08/25 15:51:45;;;;;;;26.00;4.97;;;27.90;96.30;;;;;;4973277;28;20284;-76
2022/08/25 15:54:13;;;;;;;30.20;7.60;;;27.80;96.30;;;;;;4972579;28;20209;-76
2022/08/25 15:56:39;;;;;;;26.03;5.60;;;27.80;96.30;;;;;;4973356;28;20166;-76
2022/08/25 15:59:05;;;;;;;20.47;5.63;;;27.70;96.30;;;;;;4973113;28;20464;-77
2022/08/25 16:01:30;;;;;;;19.00;4.70;;;27.50;96.30;;;;;;4973271;28;20432;-76
2022/08/25 16:03:56;;;;;;;26.27;6.27;;;27.30;96.30;;;;;;4973291;28;20401;-76
2022/08/25 16:06:24;;;;;;;17.47;5.80;;;27.20;96.30;;;;;;4973187;28;20178;-76
2022/08/25 16:08:49;;;;;;;25.90;5.97;;;27.50;96.30;;;;;;4952649;28;20843;-76
2022/08/25 16:11:18;;;;;;;19.67;5.07;;;27.50;96.30;;;;;;4936682;29;20601;-76
2022/08/25 16:13:46;;;;;;;35.07;5.63;;;27.50;96.30;;;;;;4953891;29;20201;-76
2022/08/25 16:16:12;;;;;;;24.67;6.60;;;27.20;96.30;;;;;;4958427;29;20766;-80
2022/08/25 16:18:42;;;;;;;28.43;5.90;;;27.10;96.30;;;;;;4971463;29;20429;-80
2022/08/25 16:21:13;;;;;;;25.73;6.73;;;27.00;96.30;;;;;;4964587;29;20273;-79
2022/08/25 16:23:39;;;;;;;20.90;6.10;;;26.90;96.30;;;;;;4955465;29;20436;-79
2022/08/25 16:26:07;;;;;;;28.67;5.40;;;26.90;96.30;;;;;;4956566;29;20906;-79
2022/08/25 16:28:37;;;;;;;21.33;5.83;;;26.60;96.30;;;;;;4955470;29;20182;-79
2022/08/25 16:31:04;;;;;;;28.30;6.57;;;26.50;96.30;;;;;;4955537;29;21140;-79
2022/08/25 16:33:29;;;;;;;31.03;6.00;;;26.60;96.30;;;;;;4955439;29;20457;-79
2022/08/25 16:36:13;;;;;;;32.60;6.77;;;26.60;96.30;;;;;;4955768;29;20410;-79
2022/08/25 16:38:40;;;;;;;24.00;5.97;;;26.40;96.30;;;;;;4958073;29;20198;-80
2022/08/25 16:41:11;;;;;;;25.73;6.43;;;26.20;96.30;;;;;;4969351;28;20806;-80
2022/08/25 16:43:38;;;;;;;25.27;6.07;;;26.20;96.30;;;;;;4978852;28;20463;-80
2022/08/25 16:46:06;;;;;;;34.07;7.73;;;26.10;96.30;;;;;;4978542;28;20513;-80
2022/08/25 16:48:33;;;;;;;32.43;5.87;;;25.90;96.30;;;;;;4978146;28;20413;-80
2022/08/25 16:50:59;;;;;;;27.63;6.63;;;25.90;96.30;;;;;;4978516;28;20766;-80
2022/08/25 16:56:09;;;;;;;20.30;4.63;;;25.70;96.30;;;;;;4978833;28;20268;-80
2022/08/25 16:58:35;;;;;;;28.47;5.40;;;25.60;96.30;;;;;;4978239;28;20440;-80
2022/08/25 17:01:11;;;;;;;22.37;5.93;;;25.50;96.30;;;;;;4978285;28;20209;-80
2022/08/25 17:03:39;;;;;;;25.50;6.13;;;25.50;96.30;;;;;;4979315;28;20504;-80
2022/08/25 17:06:05;;;;;;;24.57;5.80;;;25.40;96.30;;;;;;4978243;28;20421;-80
2022/08/25 17:08:32;;;;;;;26.53;5.60;;;25.40;96.30;;;;;;4978267;28;20421;-80
2022/08/25 17:11:20;;;;;;;34.80;6.57;;;25.30;96.30;;;;;;4959053;28;20786;-79
2022/08/25 17:13:48;;;;;;;29.20;6.40;;;25.30;96.30;;;;;;4941808;29;20470;-80
2022/08/25 17:16:15;;;;;;;15.70;5.20;;;25.20;96.30;;;;;;4957168;29;20415;-77
2022/08/25 17:18:41;;;;;;;35.03;5.80;;;25.10;96.30;;;;;;4956941;29;20417;-77
2022/08/25 17:21:11;;;;;;;27.87;6.53;;;25.10;96.30;;;;;;4956915;28;20472;-77
2022/08/25 17:23:38;;;;;;;27.10;5.60;;;25.00;96.30;;;;;;4956838;29;20418;-77
2022/08/25 17:26:04;;;;;;;35.53;6.20;;;24.90;96.30;;;;;;4956742;29;20458;-77
2022/08/25 17:28:31;;;;;;;35.03;6.27;;;24.80;96.30;;;;;;4956649;29;20418;-77
2022/08/25 17:30:57;;;;;;;20.63;6.50;;;24.70;96.30;;;;;;4956680;28;20461;-78
2022/08/25 17:33:22;;;;;;;23.03;6.40;;;24.60;96.30;;;;;;4958014;29;20461;-79
2022/08/25 17:35:50;;;;;;;24.83;5.53;;;24.50;96.30;;;;;;4958442;29;20510;-80
2022/08/25 17:38:19;;;;;;;35.80;7.37;;;24.40;96.30;;;;;;4958007;29;20179;-79
2022/08/25 17:40:45;;;;;;;39.17;6.70;;;24.20;96.30;;;;;;4964828;28;20450;-80
2022/08/25 17:43:11;;;;;;;27.97;7.20;;;24.00;96.30;;;;;;4977517;28;20423;-79
2022/08/25 17:45:38;;;;;;;15.63;5.10;;;23.80;96.30;;;;;;4976306;28;20424;-77
2022/08/25 17:48:05;;;;;;;24.97;5.43;;;23.70;96.30;;;;;;4975293;28;20597;-77
2022/08/25 17:50:30;;;;;;;29.67;6.00;;;23.60;96.30;;;;;;4976746;28;20509;-80
2022/08/25 17:52:56;;;;;;;31.23;6.57;;;23.60;96.30;;;;;;4976825;28;21177;-80
2022/08/25 17:55:22;;;;;;;29.03;6.13;;;23.60;96.30;;;;;;4977397;28;20182;-80
2022/08/25 17:57:49;;;;;;;23.63;5.00;;;23.50;96.30;;;;;;4976597;28;20942;-77
2022/08/25 18:00:16;;;;;;;33.07;6.63;;;23.40;96.30;;;;;;4975419;28;20449;-77
2022/08/25 18:02:42;;;;;;;30.67;5.80;;;23.30;96.30;;;;;;4958250;28;20430;-77
2022/08/25 18:05:08;;;;;;;30.17;6.47;;;23.20;96.30;;;;;;4975244;28;20491;-77
2022/08/25 18:07:35;;;;;;;33.40;6.33;;;23.10;96.30;;;;;;4975442;28;20182;-77
2022/08/25 18:10:05;;;;;;;37.17;6.53;;;22.90;96.30;;;;;;4963291;28;20937;-77
2022/08/25 18:12:30;;;;;;;22.80;6.20;;;22.80;96.30;;;;;;4938636;29;20974;-79
2022/08/25 18:14:55;;;;;;;24.90;8.10;;;22.80;96.30;;;;;;4956392;29;20422;-78
2022/08/25 18:17:21;;;;;;;32.17;8.00;;;22.80;96.30;;;;;;4938655;29;20171;-78